sensor_id;sensor_type;location;lat;lon;timestamp;P1;durP1;ratioP1;P2;durP2;ratioP2
47922;SDS011;33688;44.354;9.228;2024-01-27T00:00:50;2.92;;;1.88;;
47922;SDS011;33688;44.354;9.228;2024-01-27T00:03:18;1.65;;;1.55;;
47922;SDS011;33688;44.354;9.228;2024-01-27T00:05:44;1.83;;;1.67;;
47922;SDS011;33688;44.354;9.228;2024-01-27T00:08:10;1.40;;;1.30;;
47922;SDS011;33688;44.354;9.228;2024-01-27T00:10:35;1.90;;;1.65;;
47922;SDS011;33688;44.354;9.228;2024-01-27T00:13:01;1.77;;;1.65;;
47922;SDS011;33688;44.354;9.228;2024-01-27T00:15:27;1.95;;;1.73;;
47922;SDS011;33688;44.354;9.228;2024-01-27T00:17:53;2.17;;;1.73;;
47922;SDS011;33688;44.354;9.228;2024-01-27T00:20:19;2.70;;;1.98;;
47922;SDS011;33688;44.354;9.228;2024-01-27T00:22:44;2.92;;;1.73;;
47922;SDS011;33688;44.354;9.228;2024-01-27T00:25:10;1.52;;;1.42;;
47922;SDS011;33688;44.354;9.228;2024-01-27T00:27:37;3.28;;;1.80;;
47922;SDS011;33688;44.354;9.228;2024-01-27T00:30:03;1.55;;;1.45;;
47922;SDS011;33688;44.354;9.228;2024-01-27T00:32:32;2.30;;;1.60;;
47922;SDS011;33688;44.354;9.228;2024-01-27T00:34:59;2.72;;;2.22;;
47922;SDS011;33688;44.354;9.228;2024-01-27T00:37:24;1.67;;;1.58;;
47922;SDS011;33688;44.354;9.228;2024-01-27T00:39:50;2.08;;;1.88;;
47922;SDS011;33688;44.354;9.228;2024-01-27T00:42:17;1.73;;;1.60;;
47922;SDS011;33688;44.354;9.228;2024-01-27T00:44:44;1.67;;;1.58;;
47922;SDS011;33688;44.354;9.228;2024-01-27T00:47:10;2.55;;;1.63;;
47922;SDS011;33688;44.354;9.228;2024-01-27T00:49:36;2.55;;;1.60;;
47922;SDS011;33688;44.354;9.228;2024-01-27T00:52:02;2.05;;;1.83;;
47922;SDS011;33688;44.354;9.228;2024-01-27T00:54:29;2.83;;;1.85;;
47922;SDS011;33688;44.354;9.228;2024-01-27T00:56:55;2.28;;;1.85;;
47922;SDS011;33688;44.354;9.228;2024-01-27T00:59:22;1.58;;;1.48;;
47922;SDS011;33688;44.354;9.228;2024-01-27T01:01:48;1.85;;;1.70;;
47922;SDS011;33688;44.354;9.228;2024-01-27T01:04:14;1.77;;;1.67;;
47922;SDS011;33688;44.354;9.228;2024-01-27T01:06:40;2.40;;;1.80;;
47922;SDS011;33688;44.354;9.228;2024-01-27T01:09:06;1.73;;;1.38;;
47922;SDS011;33688;44.354;9.228;2024-01-27T01:11:32;1.60;;;1.50;;
47922;SDS011;33688;44.354;9.228;2024-01-27T01:13:58;1.60;;;1.50;;
47922;SDS011;33688;44.354;9.228;2024-01-27T01:16:24;1.80;;;1.67;;
47922;SDS011;33688;44.354;9.228;2024-01-27T01:18:50;2.35;;;1.70;;
47922;SDS011;33688;44.354;9.228;2024-01-27T01:21:16;1.63;;;1.33;;
47922;SDS011;33688;44.354;9.228;2024-01-27T01:23:42;1.88;;;1.50;;
47922;SDS011;33688;44.354;9.228;2024-01-27T01:26:09;2.45;;;1.88;;
47922;SDS011;33688;44.354;9.228;2024-01-27T01:28:34;1.75;;;1.52;;
47922;SDS011;33688;44.354;9.228;2024-01-27T01:31:02;2.55;;;1.80;;
47922;SDS011;33688;44.354;9.228;2024-01-27T01:33:28;2.20;;;1.70;;
47922;SDS011;33688;44.354;9.228;2024-01-27T01:35:54;2.17;;;1.95;;
47922;SDS011;33688;44.354;9.228;2024-01-27T01:38:19;2.15;;;1.73;;
47922;SDS011;33688;44.354;9.228;2024-01-27T01:40:47;2.22;;;1.77;;
47922;SDS011;33688;44.354;9.228;2024-01-27T01:43:12;2.05;;;1.85;;
47922;SDS011;33688;44.354;9.228;2024-01-27T01:45:38;2.08;;;1.88;;
47922;SDS011;33688;44.354;9.228;2024-01-27T01:48:05;2.10;;;1.80;;
47922;SDS011;33688;44.354;9.228;2024-01-27T01:50:32;2.33;;;2.00;;
47922;SDS011;33688;44.354;9.228;2024-01-27T01:52:58;3.00;;;2.03;;
47922;SDS011;33688;44.354;9.228;2024-01-27T01:55:26;1.65;;;1.50;;
47922;SDS011;33688;44.354;9.228;2024-01-27T01:57:52;2.20;;;1.83;;
47922;SDS011;33688;44.354;9.228;2024-01-27T02:00:18;2.45;;;2.10;;
47922;SDS011;33688;44.354;9.228;2024-01-27T02:02:45;1.98;;;1.77;;
47922;SDS011;33688;44.354;9.228;2024-01-27T02:05:12;2.00;;;1.80;;
47922;SDS011;33688;44.354;9.228;2024-01-27T02:07:38;2.03;;;1.83;;
47922;SDS011;33688;44.354;9.228;2024-01-27T02:10:05;1.52;;;1.38;;
47922;SDS011;33688;44.354;9.228;2024-01-27T02:12:38;2.17;;;1.90;;
47922;SDS011;33688;44.354;9.228;2024-01-27T02:15:04;1.70;;;1.50;;
47922;SDS011;33688;44.354;9.228;2024-01-27T02:17:30;2.13;;;1.83;;
47922;SDS011;33688;44.354;9.228;2024-01-27T02:19:57;2.22;;;1.63;;
47922;SDS011;33688;44.354;9.228;2024-01-27T02:22:25;1.70;;;1.60;;
47922;SDS011;33688;44.354;9.228;2024-01-27T02:27:35;1.80;;;1.67;;
47922;SDS011;33688;44.354;9.228;2024-01-27T02:30:02;1.80;;;1.70;;
47922;SDS011;33688;44.354;9.228;2024-01-27T02:32:28;1.60;;;1.35;;
47922;SDS011;33688;44.354;9.228;2024-01-27T02:34:54;1.70;;;1.38;;
47922;SDS011;33688;44.354;9.228;2024-01-27T02:37:22;2.03;;;1.50;;
47922;SDS011;33688;44.354;9.228;2024-01-27T02:39:48;1.90;;;1.40;;
47922;SDS011;33688;44.354;9.228;2024-01-27T02:42:14;2.28;;;1.75;;
47922;SDS011;33688;44.354;9.228;2024-01-27T02:44:39;2.00;;;1.67;;
47922;SDS011;33688;44.354;9.228;2024-01-27T02:47:06;1.58;;;1.40;;
47922;SDS011;33688;44.354;9.228;2024-01-27T02:49:33;3.53;;;2.03;;
47922;SDS011;33688;44.354;9.228;2024-01-27T02:51:58;2.03;;;1.73;;
47922;SDS011;33688;44.354;9.228;2024-01-27T02:54:24;1.70;;;1.55;;
47922;SDS011;33688;44.354;9.228;2024-01-27T02:56:50;1.77;;;1.60;;
47922;SDS011;33688;44.354;9.228;2024-01-27T02:59:15;1.83;;;1.65;;
47922;SDS011;33688;44.354;9.228;2024-01-27T03:01:41;2.00;;;1.85;;
47922;SDS011;33688;44.354;9.228;2024-01-27T03:04:08;2.08;;;1.80;;
47922;SDS011;33688;44.354;9.228;2024-01-27T03:06:34;2.33;;;1.42;;
47922;SDS011;33688;44.354;9.228;2024-01-27T03:08:59;1.73;;;1.63;;
47922;SDS011;33688;44.354;9.228;2024-01-27T03:11:25;1.65;;;1.52;;
47922;SDS011;33688;44.354;9.228;2024-01-27T03:13:51;2.25;;;1.92;;
47922;SDS011;33688;44.354;9.228;2024-01-27T03:16:17;2.05;;;1.83;;
47922;SDS011;33688;44.354;9.228;2024-01-27T03:18:47;2.00;;;1.80;;
47922;SDS011;33688;44.354;9.228;2024-01-27T03:21:12;1.70;;;1.60;;
47922;SDS011;33688;44.354;9.228;2024-01-27T03:23:40;2.03;;;1.67;;
47922;SDS011;33688;44.354;9.228;2024-01-27T03:26:05;2.58;;;1.55;;
47922;SDS011;33688;44.354;9.228;2024-01-27T03:28:31;2.00;;;1.60;;
47922;SDS011;33688;44.354;9.228;2024-01-27T03:30:57;1.70;;;1.60;;
47922;SDS011;33688;44.354;9.228;2024-01-27T03:33:26;1.65;;;1.55;;
47922;SDS011;33688;44.354;9.228;2024-01-27T03:35:54;3.30;;;1.83;;
47922;SDS011;33688;44.354;9.228;2024-01-27T03:38:20;1.50;;;1.40;;
47922;SDS011;33688;44.354;9.228;2024-01-27T03:40:46;1.83;;;1.73;;
47922;SDS011;33688;44.354;9.228;2024-01-27T03:43:12;1.42;;;1.33;;
47922;SDS011;33688;44.354;9.228;2024-01-27T03:45:37;1.85;;;1.75;;
47922;SDS011;33688;44.354;9.228;2024-01-27T03:48:04;1.77;;;1.60;;
47922;SDS011;33688;44.354;9.228;2024-01-27T03:50:30;1.80;;;1.48;;
47922;SDS011;33688;44.354;9.228;2024-01-27T03:52:56;1.70;;;1.60;;
47922;SDS011;33688;44.354;9.228;2024-01-27T03:55:22;2.05;;;1.58;;
47922;SDS011;33688;44.354;9.228;2024-01-27T03:57:48;1.60;;;1.50;;
47922;SDS011;33688;44.354;9.228;2024-01-27T04:00:13;1.80;;;1.45;;
47922;SDS011;33688;44.354;9.228;2024-01-27T04:02:39;1.92;;;1.73;;
47922;SDS011;33688;44.354;9.228;2024-01-27T04:05:05;1.63;;;1.52;;
47922;SDS011;33688;44.354;9.228;2024-01-27T04:07:33;1.60;;;1.50;;
47922;SDS011;33688;44.354;9.228;2024-01-27T04:09:58;1.67;;;1.58;;
47922;SDS011;33688;44.354;9.228;2024-01-27T04:12:27;1.73;;;1.63;;
47922;SDS011;33688;44.354;9.228;2024-01-27T04:14:52;2.05;;;1.55;;
47922;SDS011;33688;44.354;9.228;2024-01-27T04:17:18;1.60;;;1.50;;
47922;SDS011;33688;44.354;9.228;2024-01-27T04:19:45;1.80;;;1.70;;
47922;SDS011;33688;44.354;9.228;2024-01-27T04:22:10;1.80;;;1.58;;
47922;SDS011;33688;44.354;9.228;2024-01-27T04:24:36;1.63;;;1.52;;
47922;SDS011;33688;44.354;9.228;2024-01-27T04:27:02;2.45;;;2.17;;
47922;SDS011;33688;44.354;9.228;2024-01-27T04:29:28;1.85;;;1.63;;
47922;SDS011;33688;44.354;9.228;2024-01-27T04:31:56;2.03;;;1.83;;
47922;SDS011;33688;44.354;9.228;2024-01-27T04:34:22;2.08;;;1.88;;
47922;SDS011;33688;44.354;9.228;2024-01-27T04:36:48;3.22;;;1.80;;
47922;SDS011;33688;44.354;9.228;2024-01-27T04:39:14;1.42;;;1.33;;
47922;SDS011;33688;44.354;9.228;2024-01-27T04:41:43;1.40;;;1.30;;
47922;SDS011;33688;44.354;9.228;2024-01-27T04:44:10;1.65;;;1.55;;
47922;SDS011;33688;44.354;9.228;2024-01-27T04:46:36;1.90;;;1.70;;
47922;SDS011;33688;44.354;9.228;2024-01-27T04:49:02;1.55;;;1.38;;
47922;SDS011;33688;44.354;9.228;2024-01-27T04:51:28;1.40;;;1.30;;
47922;SDS011;33688;44.354;9.228;2024-01-27T04:53:54;2.97;;;1.70;;
47922;SDS011;33688;44.354;9.228;2024-01-27T04:56:20;1.70;;;1.50;;
47922;SDS011;33688;44.354;9.228;2024-01-27T04:58:46;1.60;;;1.42;;
47922;SDS011;33688;44.354;9.228;2024-01-27T05:01:12;1.70;;;1.60;;
47922;SDS011;33688;44.354;9.228;2024-01-27T05:03:38;2.17;;;1.80;;
47922;SDS011;33688;44.354;9.228;2024-01-27T05:06:07;1.75;;;1.50;;
47922;SDS011;33688;44.354;9.228;2024-01-27T05:08:34;1.80;;;1.70;;
47922;SDS011;33688;44.354;9.228;2024-01-27T05:11:00;1.58;;;1.48;;
47922;SDS011;33688;44.354;9.228;2024-01-27T05:13:26;2.13;;;1.48;;
47922;SDS011;33688;44.354;9.228;2024-01-27T05:15:52;2.03;;;1.45;;
47922;SDS011;33688;44.354;9.228;2024-01-27T05:18:17;1.48;;;1.38;;
47922;SDS011;33688;44.354;9.228;2024-01-27T05:20:43;2.45;;;1.60;;
47922;SDS011;33688;44.354;9.228;2024-01-27T05:23:09;2.10;;;1.90;;
47922;SDS011;33688;44.354;9.228;2024-01-27T05:25:36;1.95;;;1.73;;
47922;SDS011;33688;44.354;9.228;2024-01-27T05:28:02;1.40;;;1.30;;
47922;SDS011;33688;44.354;9.228;2024-01-27T05:30:27;1.90;;;1.60;;
47922;SDS011;33688;44.354;9.228;2024-01-27T05:32:54;2.53;;;1.83;;
47922;SDS011;33688;44.354;9.228;2024-01-27T05:35:20;1.75;;;1.50;;
47922;SDS011;33688;44.354;9.228;2024-01-27T05:37:47;2.33;;;2.03;;
47922;SDS011;33688;44.354;9.228;2024-01-27T05:40:13;1.67;;;1.55;;
47922;SDS011;33688;44.354;9.228;2024-01-27T05:42:41;1.63;;;1.50;;
47922;SDS011;33688;44.354;9.228;2024-01-27T05:45:08;2.17;;;1.23;;
47922;SDS011;33688;44.354;9.228;2024-01-27T05:47:35;2.03;;;1.50;;
47922;SDS011;33688;44.354;9.228;2024-01-27T05:50:01;1.52;;;1.42;;
47922;SDS011;33688;44.354;9.228;2024-01-27T05:52:28;1.75;;;1.23;;
47922;SDS011;33688;44.354;9.228;2024-01-27T05:54:53;1.75;;;1.33;;
47922;SDS011;33688;44.354;9.228;2024-01-27T05:57:19;2.17;;;1.60;;
47922;SDS011;33688;44.354;9.228;2024-01-27T05:59:45;1.83;;;1.63;;
47922;SDS011;33688;44.354;9.228;2024-01-27T06:02:11;4.53;;;2.80;;
47922;SDS011;33688;44.354;9.228;2024-01-27T06:04:37;1.90;;;1.70;;
47922;SDS011;33688;44.354;9.228;2024-01-27T06:07:03;1.83;;;1.42;;
47922;SDS011;33688;44.354;9.228;2024-01-27T06:09:28;1.75;;;1.50;;
47922;SDS011;33688;44.354;9.228;2024-01-27T06:11:54;1.65;;;1.55;;
47922;SDS011;33688;44.354;9.228;2024-01-27T06:14:27;2.42;;;1.65;;
47922;SDS011;33688;44.354;9.228;2024-01-27T06:16:55;1.42;;;1.33;;
47922;SDS011;33688;44.354;9.228;2024-01-27T06:19:22;1.95;;;1.70;;
47922;SDS011;33688;44.354;9.228;2024-01-27T06:24:17;1.70;;;1.48;;
47922;SDS011;33688;44.354;9.228;2024-01-27T06:26:43;1.85;;;1.42;;
47922;SDS011;33688;44.354;9.228;2024-01-27T06:29:09;1.45;;;1.35;;
47922;SDS011;33688;44.354;9.228;2024-01-27T06:31:35;1.40;;;1.30;;
47922;SDS011;33688;44.354;9.228;2024-01-27T06:34:02;2.22;;;1.73;;
47922;SDS011;33688;44.354;9.228;2024-01-27T06:36:28;2.03;;;1.65;;
47922;SDS011;33688;44.354;9.228;2024-01-27T06:38:54;1.70;;;1.60;;
47922;SDS011;33688;44.354;9.228;2024-01-27T06:41:20;1.50;;;1.30;;
47922;SDS011;33688;44.354;9.228;2024-01-27T06:43:46;2.67;;;1.73;;
47922;SDS011;33688;44.354;9.228;2024-01-27T06:46:11;1.67;;;1.58;;
47922;SDS011;33688;44.354;9.228;2024-01-27T06:48:37;1.70;;;1.60;;
47922;SDS011;33688;44.354;9.228;2024-01-27T06:51:03;1.30;;;1.20;;
47922;SDS011;33688;44.354;9.228;2024-01-27T06:53:30;2.05;;;1.55;;
47922;SDS011;33688;44.354;9.228;2024-01-27T06:55:55;2.50;;;1.75;;
47922;SDS011;33688;44.354;9.228;2024-01-27T06:58:21;1.73;;;1.60;;
47922;SDS011;33688;44.354;9.228;2024-01-27T07:00:47;1.60;;;1.50;;
47922;SDS011;33688;44.354;9.228;2024-01-27T07:03:13;1.67;;;1.40;;
47922;SDS011;33688;44.354;9.228;2024-01-27T07:05:38;1.60;;;1.50;;
47922;SDS011;33688;44.354;9.228;2024-01-27T07:08:09;1.40;;;1.30;;
47922;SDS011;33688;44.354;9.228;2024-01-27T07:10:35;1.70;;;1.50;;
47922;SDS011;33688;44.354;9.228;2024-01-27T07:13:03;1.50;;;1.33;;
47922;SDS011;33688;44.354;9.228;2024-01-27T07:15:31;2.03;;;1.30;;
47922;SDS011;33688;44.354;9.228;2024-01-27T07:17:57;1.67;;;1.42;;
47922;SDS011;33688;44.354;9.228;2024-01-27T07:20:22;2.70;;;1.77;;
47922;SDS011;33688;44.354;9.228;2024-01-27T07:22:50;1.73;;;1.55;;
47922;SDS011;33688;44.354;9.228;2024-01-27T07:25:16;1.27;;;1.17;;
47922;SDS011;33688;44.354;9.228;2024-01-27T07:27:42;2.33;;;1.80;;
47922;SDS011;33688;44.354;9.228;2024-01-27T07:30:08;1.98;;;1.50;;
47922;SDS011;33688;44.354;9.228;2024-01-27T07:32:36;1.35;;;1.25;;
47922;SDS011;33688;44.354;9.228;2024-01-27T07:35:02;1.67;;;1.58;;
47922;SDS011;33688;44.354;9.228;2024-01-27T07:37:28;1.60;;;1.40;;
47922;SDS011;33688;44.354;9.228;2024-01-27T07:39:53;1.63;;;1.52;;
47922;SDS011;33688;44.354;9.228;2024-01-27T07:42:20;2.08;;;1.80;;
47922;SDS011;33688;44.354;9.228;2024-01-27T07:47:30;2.53;;;1.90;;
47922;SDS011;33688;44.354;9.228;2024-01-27T07:49:56;1.75;;;1.50;;
47922;SDS011;33688;44.354;9.228;2024-01-27T07:52:22;2.10;;;1.42;;
47922;SDS011;33688;44.354;9.228;2024-01-27T07:54:47;2.05;;;1.42;;
47922;SDS011;33688;44.354;9.228;2024-01-27T07:57:14;1.75;;;1.50;;
47922;SDS011;33688;44.354;9.228;2024-01-27T07:59:39;1.25;;;1.15;;
47922;SDS011;33688;44.354;9.228;2024-01-27T08:02:05;1.88;;;1.67;;
47922;SDS011;33688;44.354;9.228;2024-01-27T08:04:31;1.85;;;1.67;;
47922;SDS011;33688;44.354;9.228;2024-01-27T08:06:57;1.67;;;1.55;;
47922;SDS011;33688;44.354;9.228;2024-01-27T08:09:23;2.10;;;1.35;;
47922;SDS011;33688;44.354;9.228;2024-01-27T08:11:50;1.65;;;1.55;;
47922;SDS011;33688;44.354;9.228;2024-01-27T08:14:19;1.77;;;1.67;;
47922;SDS011;33688;44.354;9.228;2024-01-27T08:16:46;1.40;;;1.30;;
47922;SDS011;33688;44.354;9.228;2024-01-27T08:19:11;1.42;;;1.33;;
47922;SDS011;33688;44.354;9.228;2024-01-27T08:21:37;2.28;;;1.50;;
47922;SDS011;33688;44.354;9.228;2024-01-27T08:24:04;1.52;;;1.42;;
47922;SDS011;33688;44.354;9.228;2024-01-27T08:26:30;1.77;;;1.40;;
47922;SDS011;33688;44.354;9.228;2024-01-27T08:28:56;2.05;;;1.73;;
47922;SDS011;33688;44.354;9.228;2024-01-27T08:31:23;2.00;;;1.40;;
47922;SDS011;33688;44.354;9.228;2024-01-27T08:33:49;1.83;;;1.55;;
47922;SDS011;33688;44.354;9.228;2024-01-27T08:36:14;1.50;;;1.30;;
47922;SDS011;33688;44.354;9.228;2024-01-27T08:38:40;1.95;;;1.23;;
47922;SDS011;33688;44.354;9.228;2024-01-27T08:41:06;1.92;;;1.80;;
47922;SDS011;33688;44.354;9.228;2024-01-27T08:43:32;2.40;;;1.55;;
47922;SDS011;33688;44.354;9.228;2024-01-27T08:45:57;1.55;;;1.45;;
47922;SDS011;33688;44.354;9.228;2024-01-27T08:48:25;1.50;;;1.40;;
47922;SDS011;33688;44.354;9.228;2024-01-27T08:50:51;1.60;;;1.40;;
47922;SDS011;33688;44.354;9.228;2024-01-27T08:53:18;1.67;;;1.40;;
47922;SDS011;33688;44.354;9.228;2024-01-27T08:55:43;2.00;;;1.65;;
47922;SDS011;33688;44.354;9.228;2024-01-27T08:58:10;1.52;;;1.25;;
47922;SDS011;33688;44.354;9.228;2024-01-27T09:00:36;1.65;;;1.52;;
47922;SDS011;33688;44.354;9.228;2024-01-27T09:03:02;1.60;;;1.50;;
47922;SDS011;33688;44.354;9.228;2024-01-27T09:05:28;1.85;;;1.58;;
47922;SDS011;33688;44.354;9.228;2024-01-27T09:07:55;2.70;;;1.45;;
47922;SDS011;33688;44.354;9.228;2024-01-27T09:10:21;1.92;;;1.60;;
47922;SDS011;33688;44.354;9.228;2024-01-27T09:12:47;1.70;;;1.48;;
47922;SDS011;33688;44.354;9.228;2024-01-27T09:15:13;1.42;;;1.33;;
47922;SDS011;33688;44.354;9.228;2024-01-27T09:17:39;3.35;;;1.83;;
47922;SDS011;33688;44.354;9.228;2024-01-27T09:20:05;2.20;;;1.65;;
47922;SDS011;33688;44.354;9.228;2024-01-27T09:22:31;2.03;;;1.60;;
47922;SDS011;33688;44.354;9.228;2024-01-27T09:24:57;1.60;;;1.50;;
47922;SDS011;33688;44.354;9.228;2024-01-27T09:27:23;1.55;;;1.45;;
47922;SDS011;33688;44.354;9.228;2024-01-27T09:29:48;1.98;;;1.50;;
47922;SDS011;33688;44.354;9.228;2024-01-27T09:32:14;2.10;;;1.88;;
47922;SDS011;33688;44.354;9.228;2024-01-27T09:34:41;2.17;;;1.65;;
47922;SDS011;33688;44.354;9.228;2024-01-27T09:37:08;2.55;;;2.33;;
47922;SDS011;33688;44.354;9.228;2024-01-27T09:39:33;2.55;;;1.77;;
47922;SDS011;33688;44.354;9.228;2024-01-27T09:42:00;1.60;;;1.50;;
47922;SDS011;33688;44.354;9.228;2024-01-27T09:44:32;1.73;;;1.63;;
47922;SDS011;33688;44.354;9.228;2024-01-27T09:46:59;1.88;;;1.73;;
47922;SDS011;33688;44.354;9.228;2024-01-27T09:49:26;1.77;;;1.40;;
47922;SDS011;33688;44.354;9.228;2024-01-27T09:51:53;1.80;;;1.50;;
47922;SDS011;33688;44.354;9.228;2024-01-27T09:54:20;1.63;;;1.52;;
47922;SDS011;33688;44.354;9.228;2024-01-27T09:56:46;1.90;;;1.75;;
47922;SDS011;33688;44.354;9.228;2024-01-27T09:59:14;1.60;;;1.50;;
47922;SDS011;33688;44.354;9.228;2024-01-27T10:01:43;2.00;;;1.73;;
47922;SDS011;33688;44.354;9.228;2024-01-27T10:04:10;2.58;;;1.50;;
47922;SDS011;33688;44.354;9.228;2024-01-27T10:06:37;2.10;;;1.90;;
47922;SDS011;33688;44.354;9.228;2024-01-27T10:09:03;2.80;;;1.98;;
47922;SDS011;33688;44.354;9.228;2024-01-27T10:11:29;5.88;;;1.98;;
47922;SDS011;33688;44.354;9.228;2024-01-27T10:14:00;2.30;;;2.00;;
47922;SDS011;33688;44.354;9.228;2024-01-27T10:16:25;2.65;;;2.15;;
47922;SDS011;33688;44.354;9.228;2024-01-27T10:18:59;2.53;;;2.22;;
47922;SDS011;33688;44.354;9.228;2024-01-27T10:21:28;3.45;;;2.30;;
47922;SDS011;33688;44.354;9.228;2024-01-27T10:23:54;2.42;;;2.20;;
47922;SDS011;33688;44.354;9.228;2024-01-27T10:26:20;3.45;;;2.35;;
47922;SDS011;33688;44.354;9.228;2024-01-27T10:28:55;2.55;;;2.28;;
47922;SDS011;33688;44.354;9.228;2024-01-27T10:31:26;2.38;;;2.17;;
47922;SDS011;33688;44.354;9.228;2024-01-27T10:33:58;3.63;;;2.72;;
47922;SDS011;33688;44.354;9.228;2024-01-27T10:36:26;2.90;;;2.15;;
47922;SDS011;33688;44.354;9.228;2024-01-27T10:39:13;2.58;;;2.30;;
47922;SDS011;33688;44.354;9.228;2024-01-27T10:41:46;3.45;;;2.67;;
47922;SDS011;33688;44.354;9.228;2024-01-27T10:44:14;2.55;;;2.20;;
47922;SDS011;33688;44.354;9.228;2024-01-27T10:46:43;2.70;;;2.15;;
47922;SDS011;33688;44.354;9.228;2024-01-27T10:49:15;3.33;;;2.30;;
47922;SDS011;33688;44.354;9.228;2024-01-27T10:51:46;3.05;;;2.05;;
47922;SDS011;33688;44.354;9.228;2024-01-27T10:54:24;3.58;;;2.22;;
47922;SDS011;33688;44.354;9.228;2024-01-27T10:56:53;3.07;;;2.30;;
47922;SDS011;33688;44.354;9.228;2024-01-27T10:59:23;3.38;;;2.65;;
47922;SDS011;33688;44.354;9.228;2024-01-27T11:01:52;3.08;;;2.15;;
47922;SDS011;33688;44.354;9.228;2024-01-27T11:04:21;2.90;;;2.60;;
47922;SDS011;33688;44.354;9.228;2024-01-27T11:06:47;2.42;;;2.22;;
47922;SDS011;33688;44.354;9.228;2024-01-27T11:09:14;2.67;;;2.33;;
47922;SDS011;33688;44.354;9.228;2024-01-27T11:11:43;3.45;;;2.47;;
47922;SDS011;33688;44.354;9.228;2024-01-27T11:14:11;2.80;;;2.03;;
47922;SDS011;33688;44.354;9.228;2024-01-27T11:16:37;2.97;;;2.42;;
47922;SDS011;33688;44.354;9.228;2024-01-27T11:19:11;2.20;;;2.00;;
47922;SDS011;33688;44.354;9.228;2024-01-27T11:21:38;3.13;;;2.30;;
47922;SDS011;33688;44.354;9.228;2024-01-27T11:24:16;2.95;;;2.42;;
47922;SDS011;33688;44.354;9.228;2024-01-27T11:26:43;2.90;;;2.28;;
47922;SDS011;33688;44.354;9.228;2024-01-27T11:29:10;4.53;;;2.70;;
47922;SDS011;33688;44.354;9.228;2024-01-27T11:31:44;2.95;;;2.33;;
47922;SDS011;33688;44.354;9.228;2024-01-27T11:34:11;2.72;;;2.15;;
47922;SDS011;33688;44.354;9.228;2024-01-27T11:36:44;2.65;;;2.00;;
47922;SDS011;33688;44.354;9.228;2024-01-27T11:39:25;3.42;;;2.58;;
47922;SDS011;33688;44.354;9.228;2024-01-27T11:41:53;3.13;;;2.30;;
47922;SDS011;33688;44.354;9.228;2024-01-27T11:44:30;2.97;;;2.05;;
47922;SDS011;33688;44.354;9.228;2024-01-27T11:46:55;2.08;;;1.88;;
47922;SDS011;33688;44.354;9.228;2024-01-27T11:49:23;2.97;;;2.25;;
47922;SDS011;33688;44.354;9.228;2024-01-27T11:51:49;3.42;;;2.35;;
47922;SDS011;33688;44.354;9.228;2024-01-27T11:54:15;2.58;;;2.28;;
47922;SDS011;33688;44.354;9.228;2024-01-27T11:56:40;2.65;;;2.22;;
47922;SDS011;33688;44.354;9.228;2024-01-27T11:59:07;3.15;;;2.13;;
47922;SDS011;33688;44.354;9.228;2024-01-27T12:01:34;3.17;;;2.30;;
47922;SDS011;33688;44.354;9.228;2024-01-27T12:04:00;4.35;;;2.70;;
47922;SDS011;33688;44.354;9.228;2024-01-27T12:06:26;3.13;;;2.63;;
47922;SDS011;33688;44.354;9.228;2024-01-27T12:08:53;2.45;;;2.10;;
47922;SDS011;33688;44.354;9.228;2024-01-27T12:11:21;2.80;;;2.50;;
47922;SDS011;33688;44.354;9.228;2024-01-27T12:13:48;3.58;;;2.47;;
47922;SDS011;33688;44.354;9.228;2024-01-27T12:16:15;3.35;;;2.58;;
47922;SDS011;33688;44.354;9.228;2024-01-27T12:18:43;2.65;;;2.13;;
47922;SDS011;33688;44.354;9.228;2024-01-27T12:21:12;2.55;;;2.17;;
47922;SDS011;33688;44.354;9.228;2024-01-27T12:23:58;3.88;;;2.47;;
47922;SDS011;33688;44.354;9.228;2024-01-27T12:26:30;2.70;;;2.50;;
47922;SDS011;33688;44.354;9.228;2024-01-27T12:28:57;2.40;;;2.20;;
47922;SDS011;33688;44.354;9.228;2024-01-27T12:31:23;3.42;;;2.45;;
47922;SDS011;33688;44.354;9.228;2024-01-27T12:33:50;3.38;;;2.40;;
47922;SDS011;33688;44.354;9.228;2024-01-27T12:36:21;3.03;;;2.23;;
47922;SDS011;33688;44.354;9.228;2024-01-27T12:38:52;2.58;;;2.10;;
47922;SDS011;33688;44.354;9.228;2024-01-27T12:41:30;3.40;;;2.67;;
47922;SDS011;33688;44.354;9.228;2024-01-27T12:43:59;4.22;;;2.95;;
47922;SDS011;33688;44.354;9.228;2024-01-27T12:46:24;2.47;;;2.20;;
47922;SDS011;33688;44.354;9.228;2024-01-27T12:48:51;3.65;;;2.75;;
47922;SDS011;33688;44.354;9.228;2024-01-27T12:51:18;2.75;;;2.00;;
47922;SDS011;33688;44.354;9.228;2024-01-27T12:53:45;2.83;;;2.40;;
47922;SDS011;33688;44.354;9.228;2024-01-27T12:56:11;5.30;;;2.83;;
47922;SDS011;33688;44.354;9.228;2024-01-27T12:58:41;2.88;;;2.40;;
47922;SDS011;33688;44.354;9.228;2024-01-27T13:01:08;2.65;;;2.40;;
47922;SDS011;33688;44.354;9.228;2024-01-27T13:03:35;2.80;;;2.17;;
47922;SDS011;33688;44.354;9.228;2024-01-27T13:06:01;3.00;;;2.35;;
47922;SDS011;33688;44.354;9.228;2024-01-27T13:08:27;4.22;;;2.53;;
47922;SDS011;33688;44.354;9.228;2024-01-27T13:10:53;2.58;;;2.05;;
47922;SDS011;33688;44.354;9.228;2024-01-27T13:13:20;3.97;;;2.50;;
47922;SDS011;33688;44.354;9.228;2024-01-27T13:15:45;3.22;;;2.75;;
47922;SDS011;33688;44.354;9.228;2024-01-27T13:18:12;2.75;;;2.20;;
47922;SDS011;33688;44.354;9.228;2024-01-27T13:20:38;4.22;;;2.70;;
47922;SDS011;33688;44.354;9.228;2024-01-27T13:23:05;3.75;;;2.80;;
47922;SDS011;33688;44.354;9.228;2024-01-27T13:25:32;3.13;;;2.40;;
47922;SDS011;33688;44.354;9.228;2024-01-27T13:27:58;2.30;;;2.10;;
47922;SDS011;33688;44.354;9.228;2024-01-27T13:30:24;3.28;;;2.70;;
47922;SDS011;33688;44.354;9.228;2024-01-27T13:32:50;3.75;;;2.72;;
47922;SDS011;33688;44.354;9.228;2024-01-27T13:35:16;2.33;;;2.03;;
47922;SDS011;33688;44.354;9.228;2024-01-27T13:37:43;2.35;;;2.15;;
47922;SDS011;33688;44.354;9.228;2024-01-27T13:40:09;2.35;;;2.08;;
47922;SDS011;33688;44.354;9.228;2024-01-27T13:42:38;2.88;;;2.25;;
47922;SDS011;33688;44.354;9.228;2024-01-27T13:45:06;3.40;;;2.35;;
47922;SDS011;33688;44.354;9.228;2024-01-27T13:47:34;2.05;;;1.77;;
47922;SDS011;33688;44.354;9.228;2024-01-27T13:49:59;2.10;;;1.90;;
47922;SDS011;33688;44.354;9.228;2024-01-27T13:52:25;3.15;;;2.30;;
47922;SDS011;33688;44.354;9.228;2024-01-27T13:54:51;2.78;;;2.22;;
47922;SDS011;33688;44.354;9.228;2024-01-27T13:57:17;3.53;;;2.58;;
47922;SDS011;33688;44.354;9.228;2024-01-27T13:59:42;3.00;;;2.05;;
47922;SDS011;33688;44.354;9.228;2024-01-27T14:02:10;2.42;;;2.22;;
47922;SDS011;33688;44.354;9.228;2024-01-27T14:04:36;2.80;;;2.13;;
47922;SDS011;33688;44.354;9.228;2024-01-27T14:07:02;2.85;;;1.92;;
47922;SDS011;33688;44.354;9.228;2024-01-27T14:09:32;3.15;;;2.33;;
47922;SDS011;33688;44.354;9.228;2024-01-27T14:11:59;3.45;;;2.25;;
47922;SDS011;33688;44.354;9.228;2024-01-27T14:14:26;2.03;;;1.80;;
47922;SDS011;33688;44.354;9.228;2024-01-27T14:16:52;3.83;;;2.20;;
47922;SDS011;33688;44.354;9.228;2024-01-27T14:19:20;2.20;;;2.00;;
47922;SDS011;33688;44.354;9.228;2024-01-27T14:21:46;2.90;;;2.25;;
47922;SDS011;33688;44.354;9.228;2024-01-27T14:24:11;1.60;;;1.38;;
47922;SDS011;33688;44.354;9.228;2024-01-27T14:26:37;2.47;;;2.28;;
47922;SDS011;33688;44.354;9.228;2024-01-27T14:29:03;2.72;;;2.28;;
47922;SDS011;33688;44.354;9.228;2024-01-27T14:31:30;2.58;;;2.03;;
47922;SDS011;33688;44.354;9.228;2024-01-27T14:33:57;3.88;;;2.38;;
47922;SDS011;33688;44.354;9.228;2024-01-27T14:36:23;2.45;;;1.92;;
47922;SDS011;33688;44.354;9.228;2024-01-27T14:38:51;2.67;;;2.10;;
47922;SDS011;33688;44.354;9.228;2024-01-27T14:41:17;2.03;;;1.70;;
47922;SDS011;33688;44.354;9.228;2024-01-27T14:43:43;2.58;;;1.90;;
47922;SDS011;33688;44.354;9.228;2024-01-27T14:46:08;3.15;;;2.55;;
47922;SDS011;33688;44.354;9.228;2024-01-27T14:48:34;2.75;;;1.92;;
47922;SDS011;33688;44.354;9.228;2024-01-27T14:51:00;2.60;;;1.70;;
47922;SDS011;33688;44.354;9.228;2024-01-27T14:53:26;2.42;;;1.98;;